KDHT/DHT METAR and TAF weather

Enter ICAO airport designator
Station Type Date Time Source
KDHT METAR 2019/12/13 13:53 UTC NOAA

KDHT 131353Z AUTO 30010KT 10SM CLR M01/M06 A2992 RMK AO2 SLP137 T10061061


Station Type Date Time Source
KDHT Decoded METAR 2019/12/13 13:53 UTC NOAA

DALHART MUNICIPAL AIRPORT, TX, United States (KDHT) 36-01N 102-33W 1217M
Dec 13, 2019 - 08:53 AM EST / 2019.12.13 1353 UTC
Wind: from the WNW (300 degrees) at 12 MPH (10 KT):0
Visibility: 10 mile(s):0
Sky conditions: clear
Temperature: 30.9 F (-0.6 C)
Windchill: 21 F (-6 C):1
Dew Point: 21.0 F (-6.1 C)
Relative Humidity: 66%
Pressure (altimeter): 29.92 in. Hg (1013 hPa)
ob: KDHT 131353Z AUTO 30010KT 10SM CLR M01/M06 A2992 RMK AO2 SLP137 T10061061
cycle: 14

Station Type Date Time Source
KDHT TAF 2019/12/13 12:24 UTC NOAA

TAF KDHT 131122Z 1312/1412 31009KT P6SM FEW100 SCT200
FM131700 33013KT P6SM FEW100 SCT200
FM132300 36010KT P6SM FEW080 SCT200
FM140900 36005KT P6SM SCT200

Example: see airport list